Time;durP1;ratioP1;P1;durP2;ratioP2;P2;SDS_P1;SDS_P2;PMS_P1;PMS_P2;Temp;Humidity;BMP_temperature;BMP_pressure;BME280_temperature;BME280_humidity;BME280_pressure;Samples;Min_cycle;Max_cycle;Signal;HPM_P1;HPM_P2
2022/03/23 00:00:19;;;;;;;;;50.50;44.00;;;;;;;;4939933;28;11626;-78
2022/03/23 00:02:47;;;;;;;;;55.50;42.75;;;;;;;;4950616;28;11718;-78
2022/03/23 00:05:17;;;;;;;;;50.25;45.00;;;;;;;;4952312;28;11673;-78
2022/03/23 00:07:44;;;;;;;;;39.50;38.25;;;;;;;;4943571;28;11693;-79
2022/03/23 00:10:12;;;;;;;;;54.00;45.50;;;;;;;;4945939;28;11646;-79
2022/03/23 00:12:39;;;;;;;;;49.50;42.50;;;;;;;;4925754;28;11634;-78
2022/03/23 00:15:08;;;;;;;;;49.00;41.25;;;;;;;;4970464;28;11608;-78
2022/03/23 00:17:35;;;;;;;;;54.00;41.75;;;;;;;;4942119;28;11579;-78
2022/03/23 00:20:04;;;;;;;;;56.75;47.00;;;;;;;;4941704;28;12674;-79
2022/03/23 00:22:33;;;;;;;;;40.50;35.25;;;;;;;;4927114;28;11592;-79
2022/03/23 00:25:01;;;;;;;;;45.50;39.75;;;;;;;;4947276;28;11599;-78
2022/03/23 00:27:28;;;;;;;;;47.50;38.75;;;;;;;;4944291;28;11596;-78
2022/03/23 00:29:55;;;;;;;;;53.75;44.00;;;;;;;;4943677;28;11700;-78
2022/03/23 00:32:23;;;;;;;;;54.50;41.00;;;;;;;;4943232;28;11539;-78
2022/03/23 00:34:50;;;;;;;;;57.25;45.00;;;;;;;;4925630;28;11623;-78
2022/03/23 00:37:18;;;;;;;;;37.50;35.50;;;;;;;;4942033;28;11625;-78
2022/03/23 00:39:46;;;;;;;;;46.50;37.75;;;;;;;;4935359;28;11711;-78
2022/03/23 00:42:14;;;;;;;;;41.75;39.25;;;;;;;;4940347;28;11693;-78
2022/03/23 00:44:41;;;;;;;;;53.25;43.00;;;;;;;;4942630;28;11845;-77
2022/03/23 00:47:09;;;;;;;;;44.00;40.00;;;;;;;;4937065;28;11607;-79
2022/03/23 00:49:37;;;;;;;;;37.25;37.25;;;;;;;;4944026;28;11608;-78
2022/03/23 00:52:06;;;;;;;;;57.50;43.25;;;;;;;;4941753;28;11604;-78
2022/03/23 00:54:35;;;;;;;;;45.00;38.25;;;;;;;;4941828;28;11666;-78
2022/03/23 00:57:05;;;;;;;;;45.33;40.00;;;;;;;;4942395;28;11629;-78
2022/03/23 00:59:32;;;;;;;;;41.33;33.67;;;;;;;;4940586;28;11619;-78
2022/03/23 01:01:59;;;;;;;;;51.67;44.00;;;;;;;;4943586;28;11670;-78
2022/03/23 01:04:27;;;;;;;;;42.00;35.33;;;;;;;;4941487;28;11612;-78
2022/03/23 01:06:54;;;;;;;;;44.33;42.33;;;;;;;;4943358;28;11594;-78
2022/03/23 01:09:23;;;;;;;;;46.00;39.33;;;;;;;;4942344;28;11650;-79
2022/03/23 01:11:51;;;;;;;;;58.67;43.67;;;;;;;;4941845;28;11600;-79
2022/03/23 01:14:22;;;;;;;;;51.33;43.67;;;;;;;;4944426;28;11615;-78
2022/03/23 01:16:50;;;;;;;;;57.33;42.00;;;;;;;;4942253;28;11658;-78
2022/03/23 01:19:18;;;;;;;;;47.00;39.67;;;;;;;;4941966;28;8884;-78
2022/03/23 01:21:45;;;;;;;;;46.67;41.33;;;;;;;;4941981;28;8955;-78
2022/03/23 01:24:13;;;;;;;;;57.00;45.33;;;;;;;;4963622;28;11637;-79
2022/03/23 01:26:40;;;;;;;;;40.67;36.67;;;;;;;;4936951;28;8872;-79
2022/03/23 01:29:08;;;;;;;;;56.00;45.33;;;;;;;;4936433;28;8877;-77
2022/03/23 01:31:36;;;;;;;;;44.67;40.33;;;;;;;;4942723;28;8833;-79
2022/03/23 01:34:04;;;;;;;;;48.67;41.00;;;;;;;;4940975;28;8869;-79
2022/03/23 01:36:33;;;;;;;;;48.00;42.33;;;;;;;;4939495;28;11640;-79
2022/03/23 01:39:00;;;;;;;;;49.67;40.33;;;;;;;;4949718;28;11621;-79
2022/03/23 01:41:28;;;;;;;;;51.67;42.67;;;;;;;;4954102;28;11746;-78
2022/03/23 01:43:55;;;;;;;;;56.67;41.67;;;;;;;;4919801;28;11674;-79
2022/03/23 01:46:23;;;;;;;;;55.00;43.00;;;;;;;;4923632;28;11698;-78
2022/03/23 01:48:51;;;;;;;;;49.50;43.00;;;;;;;;4922116;29;9660;-79
2022/03/23 01:51:19;;;;;;;;;57.67;48.00;;;;;;;;4926537;28;11790;-79
2022/03/23 01:53:46;;;;;;;;;56.00;49.00;;;;;;;;4920669;29;9667;-79
2022/03/23 01:56:15;;;;;;;;;55.33;46.33;;;;;;;;4927678;29;8869;-77
2022/03/23 01:58:43;;;;;;;;;52.33;41.67;;;;;;;;4923020;29;8917;-78
2022/03/23 02:01:11;;;;;;;;;52.33;45.00;;;;;;;;4929468;28;11584;-79
2022/03/23 02:03:38;;;;;;;;;50.00;43.00;;;;;;;;4945126;28;8874;-77
2022/03/23 02:06:07;;;;;;;;;50.00;43.00;;;;;;;;4922646;28;8862;-77
2022/03/23 02:08:34;;;;;;;;;49.67;44.33;;;;;;;;4924560;28;8916;-78
2022/03/23 02:11:01;;;;;;;;;58.33;45.67;;;;;;;;4921925;29;8897;-80
2022/03/23 02:13:29;;;;;;;;;50.00;40.00;;;;;;;;4940861;28;9670;-78
2022/03/23 02:15:58;;;;;;;;;55.33;47.67;;;;;;;;4924013;29;8902;-77
2022/03/23 02:18:25;;;;;;;;;56.33;44.00;;;;;;;;4921608;29;8892;-78
2022/03/23 02:20:52;;;;;;;;;62.00;47.67;;;;;;;;4932746;28;8882;-78
2022/03/23 02:23:21;;;;;;;;;56.00;45.00;;;;;;;;4921781;28;8862;-77
2022/03/23 02:25:50;;;;;;;;;46.67;37.33;;;;;;;;4924756;28;8894;-75
2022/03/23 02:28:18;;;;;;;;;40.33;34.67;;;;;;;;4940646;28;8906;-76
2022/03/23 02:30:45;;;;;;;;;49.33;40.33;;;;;;;;4923057;28;8883;-78
2022/03/23 02:33:13;;;;;;;;;59.67;47.33;;;;;;;;4921820;28;8892;-78
2022/03/23 02:35:40;;;;;;;;;47.00;41.00;;;;;;;;4925501;28;8874;-79
2022/03/23 02:38:08;;;;;;;;;59.00;44.00;;;;;;;;4925488;28;8892;-79
2022/03/23 02:40:37;;;;;;;;;63.00;45.33;;;;;;;;4921583;28;8940;-77
2022/03/23 02:43:04;;;;;;;;;52.00;43.67;;;;;;;;4919162;28;8882;-79
2022/03/23 02:45:31;;;;;;;;;51.00;44.67;;;;;;;;4942761;28;8911;-79
2022/03/23 02:47:58;;;;;;;;;50.00;44.00;;;;;;;;4942895;28;8880;-79
2022/03/23 02:50:26;;;;;;;;;41.67;37.67;;;;;;;;4933787;28;8868;-77
2022/03/23 03:04:07;;;;;;;;;54.00;47.00;;;;;;;;4944709;28;8937;-78
2022/03/23 03:06:34;;;;;;;;;50.00;40.33;;;;;;;;4940539;28;8873;-79
2022/03/23 03:09:01;;;;;;;;;51.00;44.67;;;;;;;;4930418;28;8906;-78
2022/03/23 03:11:31;;;;;;;;;41.67;34.67;;;;;;;;4940113;28;8880;-76
2022/03/23 03:13:59;;;;;;;;;45.33;42.33;;;;;;;;4931628;28;8946;-77
2022/03/23 03:16:26;;;;;;;;;46.00;42.00;;;;;;;;4942753;28;8903;-78
2022/03/23 03:18:53;;;;;;;;;40.33;36.00;;;;;;;;4942759;28;8877;-78
2022/03/23 03:21:21;;;;;;;;;48.67;43.00;;;;;;;;4940545;28;8872;-77
2022/03/23 03:23:48;;;;;;;;;54.00;43.67;;;;;;;;4939418;28;8869;-78
2022/03/23 03:26:18;;;;;;;;;62.67;49.67;;;;;;;;4953883;28;8976;-78
2022/03/23 03:28:49;;;;;;;;;64.67;47.67;;;;;;;;4942903;28;8898;-78
2022/03/23 03:31:16;;;;;;;;;48.33;41.00;;;;;;;;4940136;28;8820;-78
2022/03/23 03:33:44;;;;;;;;;45.67;42.67;;;;;;;;4945149;28;8880;-79
2022/03/23 03:36:12;;;;;;;;;51.33;44.67;;;;;;;;4945991;28;8872;-78
2022/03/23 03:38:40;;;;;;;;;57.33;41.00;;;;;;;;4986594;28;8900;-78
2022/03/23 03:41:08;;;;;;;;;59.67;46.67;;;;;;;;4950120;28;8873;-78
2022/03/23 03:43:35;;;;;;;;;49.67;38.00;;;;;;;;4951405;28;8963;-79
2022/03/23 03:46:06;;;;;;;;;37.67;36.33;;;;;;;;4947093;28;8868;-78
2022/03/23 03:48:34;;;;;;;;;57.00;43.33;;;;;;;;4947638;28;8853;-78
2022/03/23 03:51:01;;;;;;;;;49.67;40.33;;;;;;;;4956556;28;8865;-76
2022/03/23 03:53:30;;;;;;;;;42.00;40.33;;;;;;;;4955548;28;8877;-79
2022/03/23 03:55:57;;;;;;;;;37.00;34.00;;;;;;;;4951028;28;8858;-77
2022/03/23 03:58:24;;;;;;;;;54.00;45.33;;;;;;;;4946092;28;8892;-78
2022/03/23 04:00:51;;;;;;;;;45.67;40.67;;;;;;;;4942334;28;8915;-78
2022/03/23 04:03:20;;;;;;;;;41.67;35.00;;;;;;;;4941837;28;8898;-78
2022/03/23 04:05:48;;;;;;;;;45.67;38.00;;;;;;;;4951508;28;8877;-78
2022/03/23 04:08:16;;;;;;;;;46.33;43.00;;;;;;;;4951174;28;9322;-80
2022/03/23 04:10:43;;;;;;;;;48.33;44.00;;;;;;;;4952040;28;8876;-79
2022/03/23 04:13:10;;;;;;;;;45.33;40.67;;;;;;;;4945531;28;8876;-78
2022/03/23 04:15:38;;;;;;;;;55.33;43.00;;;;;;;;4952322;28;9760;-78
2022/03/23 04:18:07;;;;;;;;;48.67;41.33;;;;;;;;4945251;28;8962;-80
2022/03/23 04:20:36;;;;;;;;;49.33;44.33;;;;;;;;4944707;28;8864;-80
2022/03/23 04:23:04;;;;;;;;;55.33;43.67;;;;;;;;4946550;28;8985;-80
2022/03/23 04:25:32;;;;;;;;;53.67;44.67;;;;;;;;4955678;28;8906;-78
2022/03/23 04:28:00;;;;;;;;;49.33;42.33;;;;;;;;4962676;28;8869;-80
2022/03/23 04:30:31;;;;;;;;;52.67;40.33;;;;;;;;4944582;28;8798;-80
2022/03/23 04:32:59;;;;;;;;;43.00;37.33;;;;;;;;4946979;28;8893;-79
2022/03/23 04:35:28;;;;;;;;;38.33;38.33;;;;;;;;4965822;28;9031;-78
2022/03/23 04:37:57;;;;;;;;;44.00;37.00;;;;;;;;4945633;28;8890;-81
2022/03/23 04:40:25;;;;;;;;;47.67;42.33;;;;;;;;4944232;28;8864;-78
2022/03/23 04:42:52;;;;;;;;;39.67;34.00;;;;;;;;4951944;28;8870;-79
2022/03/23 04:45:20;;;;;;;;;41.67;38.67;;;;;;;;4953690;28;8955;-79
2022/03/23 04:47:48;;;;;;;;;46.33;37.00;;;;;;;;4942395;28;8987;-79
2022/03/23 04:50:16;;;;;;;;;50.33;41.00;;;;;;;;4947661;28;8882;-79
2022/03/23 04:52:45;;;;;;;;;41.00;38.67;;;;;;;;4937763;28;8919;-78
2022/03/23 04:55:15;;;;;;;;;38.67;34.67;;;;;;;;4953660;28;8898;-78
2022/03/23 04:57:42;;;;;;;;;37.00;33.67;;;;;;;;4952146;28;8878;-78
2022/03/23 05:00:13;;;;;;;;;41.67;40.00;;;;;;;;4940915;28;8884;-79
2022/03/23 05:02:40;;;;;;;;;34.67;34.67;;;;;;;;4946252;28;8888;-78
2022/03/23 05:05:09;;;;;;;;;43.33;35.67;;;;;;;;4962563;28;8937;-78
2022/03/23 05:07:37;;;;;;;;;34.00;34.00;;;;;;;;4964217;28;8906;-79
2022/03/23 05:10:05;;;;;;;;;38.33;34.00;;;;;;;;4943051;28;8885;-78
2022/03/23 05:12:34;;;;;;;;;40.67;38.33;;;;;;;;4965700;28;8859;-77
2022/03/23 05:15:02;;;;;;;;;41.33;38.33;;;;;;;;4949993;28;8897;-78
2022/03/23 05:17:29;;;;;;;;;28.00;28.00;;;;;;;;4954180;28;8916;-79
2022/03/23 05:19:56;;;;;;;;;30.67;28.00;;;;;;;;4955933;28;9668;-78
2022/03/23 05:22:24;;;;;;;;;44.33;41.33;;;;;;;;4942595;28;8963;-79
2022/03/23 05:24:51;;;;;;;;;33.67;32.33;;;;;;;;4949707;28;9382;-78
2022/03/23 05:27:19;;;;;;;;;32.33;29.67;;;;;;;;4949429;28;8874;-78
2022/03/23 05:29:47;;;;;;;;;32.33;27.67;;;;;;;;4954649;28;8999;-79
2022/03/23 05:32:17;;;;;;;;;38.33;31.67;;;;;;;;4944255;28;8848;-77
2022/03/23 05:34:45;;;;;;;;;37.67;34.00;;;;;;;;4955373;28;9189;-77
2022/03/23 05:37:13;;;;;;;;;39.33;34.33;;;;;;;;4942524;28;8886;-77
2022/03/23 05:39:41;;;;;;;;;36.67;30.67;;;;;;;;4940255;28;9019;-79
2022/03/23 05:42:10;;;;;;;;;39.67;36.33;;;;;;;;4929282;28;9028;-80
2022/03/23 05:44:38;;;;;;;;;46.00;38.00;;;;;;;;4937671;28;8877;-77
2022/03/23 05:47:08;;;;;;;;;36.00;33.33;;;;;;;;4928129;28;8866;-78
2022/03/23 05:49:35;;;;;;;;;25.33;19.67;;;;;;;;4935433;28;8883;-78
2022/03/23 05:52:03;;;;;;;;;34.33;28.33;;;;;;;;4930809;28;8980;-78
2022/03/23 05:54:31;;;;;;;;;37.67;32.33;;;;;;;;4944011;28;8890;-77
2022/03/23 05:57:02;;;;;;;;;36.33;34.33;;;;;;;;4936864;28;8996;-78
2022/03/23 05:59:30;;;;;;;;;33.67;30.33;;;;;;;;4939451;28;8868;-79
2022/03/23 06:01:58;;;;;;;;;22.33;15.67;;;;;;;;4938630;28;9008;-79
2022/03/23 06:04:27;;;;;;;;;34.33;28.00;;;;;;;;4939316;28;8869;-80
2022/03/23 06:06:55;;;;;;;;;34.33;30.33;;;;;;;;4937239;28;8882;-79
2022/03/23 06:09:22;;;;;;;;;31.33;22.33;;;;;;;;4935363;28;8908;-78
2022/03/23 06:11:50;;;;;;;;;35.00;28.67;;;;;;;;4935907;28;8877;-79
2022/03/23 06:14:17;;;;;;;;;34.33;28.33;;;;;;;;4936990;28;8899;-79
2022/03/23 06:16:44;;;;;;;;;39.00;35.00;;;;;;;;4938608;28;8906;-78
2022/03/23 06:19:13;;;;;;;;;31.00;27.67;;;;;;;;4937152;28;8912;-80
2022/03/23 06:21:42;;;;;;;;;34.00;30.33;;;;;;;;4938799;28;8904;-79
2022/03/23 06:24:10;;;;;;;;;51.33;41.00;;;;;;;;4939158;28;8872;-79
2022/03/23 06:26:37;;;;;;;;;35.67;31.67;;;;;;;;4948314;28;8875;-78
2022/03/23 06:29:04;;;;;;;;;35.00;31.00;;;;;;;;4944107;28;9041;-85
2022/03/23 06:31:32;;;;;;;;;35.00;33.67;;;;;;;;4914456;28;8837;-84
2022/03/23 06:34:00;;;;;;;;;37.33;29.67;;;;;;;;4934387;28;8871;-82
2022/03/23 06:36:28;;;;;;;;;41.33;37.67;;;;;;;;4940394;28;8972;-82
2022/03/23 06:38:57;;;;;;;;;40.67;33.33;;;;;;;;4927328;28;9017;-83
2022/03/23 06:41:24;;;;;;;;;37.00;35.67;;;;;;;;4931663;28;8872;-83
2022/03/23 06:43:51;;;;;;;;;39.67;37.00;;;;;;;;4931383;28;8950;-85
2022/03/23 06:46:19;;;;;;;;;40.00;34.00;;;;;;;;4943222;28;8873;-80
2022/03/23 06:48:47;;;;;;;;;40.00;34.00;;;;;;;;4943349;28;8881;-85
2022/03/23 06:51:15;;;;;;;;;40.33;39.33;;;;;;;;4924253;28;8882;-80
2022/03/23 06:53:42;;;;;;;;;41.33;33.33;;;;;;;;4959521;28;8891;-82
2022/03/23 06:56:12;;;;;;;;;49.33;44.33;;;;;;;;4961477;28;8993;-83
2022/03/23 06:58:40;;;;;;;;;48.33;41.00;;;;;;;;4934061;28;9565;-83
2022/03/23 07:01:07;;;;;;;;;54.33;42.67;;;;;;;;4951756;28;8928;-85
2022/03/23 07:03:34;;;;;;;;;46.33;38.00;;;;;;;;4939774;28;8860;-81
2022/03/23 07:06:02;;;;;;;;;53.67;39.33;;;;;;;;4936960;28;9662;-84
2022/03/23 07:11:26;;;;;;;;;49.33;42.00;;;;;;;;4873648;29;11634;-82
2022/03/23 07:13:56;;;;;;;;;39.67;37.00;;;;;;;;4935640;28;8889;-83
2022/03/23 07:16:24;;;;;;;;;54.00;44.00;;;;;;;;4932076;28;11677;-83
2022/03/23 07:18:51;;;;;;;;;49.00;43.33;;;;;;;;4953960;28;11590;-84
2022/03/23 07:21:19;;;;;;;;;51.67;44.00;;;;;;;;4961148;28;11712;-84
2022/03/23 07:23:46;;;;;;;;;62.67;47.00;;;;;;;;4948281;28;11593;-85
2022/03/23 07:26:13;;;;;;;;;54.00;44.33;;;;;;;;4949940;28;12677;-84
2022/03/23 07:28:42;;;;;;;;;50.67;40.67;;;;;;;;4953339;28;11637;-84
2022/03/23 07:31:09;;;;;;;;;52.67;43.00;;;;;;;;4952888;28;11642;-84
2022/03/23 07:33:37;;;;;;;;;60.67;48.67;;;;;;;;4931084;28;11613;-85
2022/03/23 07:38:51;;;;;;;;;47.25;40.75;;;;;;;;4952798;28;11596;-84
2022/03/23 07:41:19;;;;;;;;;54.75;45.00;;;;;;;;4948318;28;12347;-87
2022/03/23 07:43:48;;;;;;;;;63.00;51.00;;;;;;;;4942940;28;11661;-87
2022/03/23 07:46:16;;;;;;;;;65.75;51.50;;;;;;;;4955047;28;11614;-83
2022/03/23 07:48:43;;;;;;;;;60.50;47.25;;;;;;;;4959310;28;11624;-84
2022/03/23 07:51:10;;;;;;;;;62.25;48.00;;;;;;;;4948443;28;11717;-85
2022/03/23 07:53:38;;;;;;;;;59.75;48.00;;;;;;;;4931690;28;11593;-86
2022/03/23 07:56:06;;;;;;;;;46.25;42.00;;;;;;;;4944708;28;11700;-79
2022/03/23 07:58:33;;;;;;;;;50.75;41.50;;;;;;;;4949164;28;11587;-83
2022/03/23 08:01:02;;;;;;;;;47.25;39.00;;;;;;;;4951062;28;11518;-83
2022/03/23 08:03:30;;;;;;;;;45.50;41.25;;;;;;;;4937359;28;11576;-84
2022/03/23 08:05:58;;;;;;;;;50.75;42.25;;;;;;;;4925444;28;11696;-84
2022/03/23 08:08:25;;;;;;;;;46.00;41.25;;;;;;;;4998871;28;11571;-82
2022/03/23 08:10:52;;;;;;;;;50.25;42.50;;;;;;;;4948144;28;11780;-83
2022/03/23 08:13:20;;;;;;;;;51.25;42.00;;;;;;;;4942929;28;12313;-88
2022/03/23 08:15:47;;;;;;;;;55.25;45.25;;;;;;;;4934220;28;11581;-84
2022/03/23 08:18:21;;;;;;;;;51.00;40.50;;;;;;;;4941569;28;11612;-92
2022/03/23 08:20:48;;;;;;;;;40.00;35.00;;;;;;;;4946511;28;11662;-88
2022/03/23 08:23:16;;;;;;;;;46.75;41.00;;;;;;;;4950625;28;11597;-88
2022/03/23 08:25:44;;;;;;;;;57.25;44.50;;;;;;;;4948743;28;11644;-84
2022/03/23 08:28:14;;;;;;;;;44.75;37.25;;;;;;;;4939723;28;11623;-83
2022/03/23 08:30:43;;;;;;;;;43.75;39.50;;;;;;;;4950913;28;11495;-86
2022/03/23 08:33:10;;;;;;;;;34.25;28.50;;;;;;;;4941077;28;11603;-86
2022/03/23 08:35:41;;;;;;;;;38.25;35.25;;;;;;;;4942460;28;11547;-88
2022/03/23 08:38:08;;;;;;;;;37.25;32.25;;;;;;;;4935454;28;11542;-82
2022/03/23 08:40:36;;;;;;;;;39.75;35.75;;;;;;;;4945096;28;11546;-85
2022/03/23 08:43:04;;;;;;;;;41.00;35.75;;;;;;;;4955619;28;11649;-87
2022/03/23 08:45:32;;;;;;;;;42.00;36.00;;;;;;;;4959338;28;11634;-86
2022/03/23 08:48:00;;;;;;;;;32.50;26.00;;;;;;;;4959635;28;11272;-84
2022/03/23 08:50:28;;;;;;;;;44.25;36.00;;;;;;;;4951878;28;11230;-87
2022/03/23 08:52:57;;;;;;;;;43.50;38.00;;;;;;;;4952835;28;11102;-88
2022/03/23 08:58:08;;;;;;;;;32.25;31.00;;;;;;;;4957299;28;10866;-83
2022/03/23 09:00:36;;;;;;;;;33.00;28.25;;;;;;;;4954057;28;10818;-86
2022/03/23 09:03:03;;;;;;;;;29.00;27.25;;;;;;;;4953976;28;10442;-84
2022/03/23 09:05:38;;;;;;;;;31.75;29.75;;;;;;;;4949495;28;10223;-87
2022/03/23 09:11:29;;;;;;;;;27.25;24.25;;;;;;;;4943298;28;10129;-84
2022/03/23 09:13:57;;;;;;;;;26.75;26.50;;;;;;;;4949096;28;10177;-81
2022/03/23 09:16:25;;;;;;;;;31.25;27.50;;;;;;;;4945935;28;10077;-83
2022/03/23 09:18:52;;;;;;;;;26.00;25.25;;;;;;;;4950585;28;10001;-83
2022/03/23 09:21:20;;;;;;;;;17.75;16.50;;;;;;;;4947977;28;9907;-82
2022/03/23 09:23:48;;;;;;;;;27.00;27.00;;;;;;;;4934637;28;9635;-83
2022/03/23 09:26:15;;;;;;;;;29.25;28.25;;;;;;;;4942356;28;9580;-83
2022/03/23 09:28:44;;;;;;;;;28.00;24.50;;;;;;;;4939139;28;9517;-82
2022/03/23 09:31:12;;;;;;;;;26.33;23.33;;;;;;;;4938239;28;9504;-82
2022/03/23 09:33:39;;;;;;;;;28.67;28.67;;;;;;;;4939912;28;9283;-83
2022/03/23 09:37:47;;;;;;;;;25.67;25.67;;;;;;;;4945036;28;9254;-82
2022/03/23 09:38:53;;;;;;;;;24.00;23.00;;;;;;;;4945808;28;9280;-83
2022/03/23 09:41:21;;;;;;;;;26.67;23.67;;;;;;;;4940031;28;9220;-82
2022/03/23 09:43:52;;;;;;;;;18.00;18.00;;;;;;;;4945531;28;8947;-82
2022/03/23 09:46:19;;;;;;;;;20.25;19.75;;;;;;;;4941521;28;9026;-83
2022/03/23 09:48:47;;;;;;;;;24.25;22.75;;;;;;;;4942828;28;8904;-83
2022/03/23 09:51:16;;;;;;;;;28.25;26.25;;;;;;;;4925913;28;8885;-83
2022/03/23 09:53:44;;;;;;;;;25.00;24.50;;;;;;;;4962858;28;8876;-82
2022/03/23 09:56:11;;;;;;;;;24.75;24.75;;;;;;;;4948619;28;8868;-82
2022/03/23 09:58:39;;;;;;;;;26.50;26.25;;;;;;;;4929873;28;8867;-82
2022/03/23 10:01:35;;;;;;;;;17.25;17.25;;;;;;;;4924441;28;8872;-81
2022/03/23 10:04:08;;;;;;;;;17.00;17.00;;;;;;;;4939217;28;8866;-80
2022/03/23 10:07:02;;;;;;;;;19.75;18.25;;;;;;;;4939951;28;8892;-81
2022/03/23 10:10:03;;;;;;;;;20.75;20.75;;;;;;;;4935148;28;8946;-83
2022/03/23 10:13:10;;;;;;;;;19.25;19.25;;;;;;;;4939380;28;8862;-80
2022/03/23 10:16:37;;;;;;;;;22.75;20.75;;;;;;;;4940816;28;8900;-79
2022/03/23 10:19:08;;;;;;;;;26.75;19.00;;;;;;;;4883696;29;8906;-83
2022/03/23 10:21:37;;;;;;;;;23.50;21.50;;;;;;;;4901048;28;8868;-83
2022/03/23 10:24:34;;;;;;;;;18.75;18.25;;;;;;;;4941518;28;8943;-83
2022/03/23 10:27:09;;;;;;;;;20.00;18.75;;;;;;;;4942472;28;8896;-83
2022/03/23 10:29:42;;;;;;;;;18.50;18.50;;;;;;;;4941640;28;8911;-84
2022/03/23 10:32:12;;;;;;;;;18.25;18.25;;;;;;;;4948167;28;8791;-83
2022/03/23 10:34:41;;;;;;;;;20.25;18.50;;;;;;;;4945540;28;8888;-85
2022/03/23 10:37:09;;;;;;;;;19.50;18.25;;;;;;;;4940642;28;8922;-85
2022/03/23 10:39:36;;;;;;;;;19.33;18.67;;;;;;;;4942586;28;8912;-85
2022/03/23 10:42:09;;;;;;;;;24.25;21.00;;;;;;;;4946258;28;8893;-83
2022/03/23 10:44:36;;;;;;;;;21.75;21.25;;;;;;;;4934839;28;8942;-82
2022/03/23 10:47:04;;;;;;;;;18.00;18.00;;;;;;;;4939690;28;8872;-82
2022/03/23 10:49:36;;;;;;;;;25.50;22.00;;;;;;;;4947992;28;8993;-83
2022/03/23 10:52:15;;;;;;;;;23.50;20.75;;;;;;;;4930661;28;8934;-83
2022/03/23 10:54:53;;;;;;;;;17.00;16.25;;;;;;;;4949301;28;8888;-83
2022/03/23 10:57:21;;;;;;;;;19.50;15.75;;;;;;;;4948533;28;9004;-83
2022/03/23 10:59:49;;;;;;;;;22.75;20.25;;;;;;;;4966489;28;8900;-82
2022/03/23 11:02:18;;;;;;;;;21.00;18.75;;;;;;;;4932600;28;8853;-82
2022/03/23 11:04:53;;;;;;;;;20.00;18.50;;;;;;;;4943704;28;8923;-83
2022/03/23 11:07:25;;;;;;;;;18.25;18.25;;;;;;;;4937479;28;8891;-79
2022/03/23 11:18:11;;;;;;;;;16.75;14.25;;;;;;;;4919877;28;8841;-85
2022/03/23 11:20:47;;;;;;;;;15.00;15.00;;;;;;;;4942450;28;8873;-83
2022/03/23 11:23:24;;;;;;;;;17.00;15.50;;;;;;;;4941975;28;8877;-83
2022/03/23 11:25:53;;;;;;;;;17.25;17.25;;;;;;;;4941751;28;8864;-83
2022/03/23 11:28:22;;;;;;;;;17.20;16.00;;;;;;;;4943453;28;8916;-85
2022/03/23 11:30:50;;;;;;;;;15.20;15.20;;;;;;;;4940617;28;9649;-86
2022/03/23 11:33:21;;;;;;;;;14.20;14.20;;;;;;;;4941206;28;8852;-87
2022/03/23 11:35:50;;;;;;;;;19.40;19.40;;;;;;;;4945931;28;8894;-88
2022/03/23 11:38:25;;;;;;;;;14.20;14.20;;;;;;;;4947227;28;8864;-87
2022/03/23 11:41:01;;;;;;;;;16.60;16.60;;;;;;;;4943788;28;8946;-86
2022/03/23 11:43:32;;;;;;;;;16.80;15.40;;;;;;;;4940608;28;9620;-82
2022/03/23 11:46:00;;;;;;;;;14.80;13.20;;;;;;;;4942777;28;9142;-86
2022/03/23 11:48:40;;;;;;;;;17.60;17.60;;;;;;;;4946618;28;8885;-87
2022/03/23 11:51:27;;;;;;;;;19.20;12.00;;;;;;;;4942666;28;8872;-84
2022/03/23 11:54:04;;;;;;;;;12.80;12.80;;;;;;;;4942054;28;8851;-80
2022/03/23 11:56:40;;;;;;;;;15.40;14.60;;;;;;;;4939996;28;9650;-76
2022/03/23 11:59:23;;;;;;;;;11.00;11.00;;;;;;;;4953469;28;8837;-84
2022/03/23 12:01:51;;;;;;;;;15.60;15.60;;;;;;;;4952180;28;9598;-86
2022/03/23 12:04:21;;;;;;;;;14.40;12.40;;;;;;;;4945933;28;8886;-87
2022/03/23 12:06:58;;;;;;;;;13.60;13.60;;;;;;;;4939738;28;9624;-81
2022/03/23 12:09:36;;;;;;;;;14.80;14.20;;;;;;;;4954002;28;9788;-84
2022/03/23 12:12:05;;;;;;;;;15.40;15.40;;;;;;;;4957018;28;8857;-84
2022/03/23 12:14:34;;;;;;;;;14.40;14.40;;;;;;;;4939298;28;9603;-87
2022/03/23 12:17:18;;;;;;;;;15.60;13.60;;;;;;;;4945797;28;8872;-85
2022/03/23 12:20:05;;;;;;;;;16.00;16.00;;;;;;;;4942849;28;8869;-84
2022/03/23 12:22:52;;;;;;;;;15.80;15.80;;;;;;;;4926151;28;8895;-85
2022/03/23 12:25:24;;;;;;;;;13.00;13.00;;;;;;;;4929915;28;8845;-86
2022/03/23 12:27:56;;;;;;;;;18.20;16.80;;;;;;;;4941785;28;8908;-81
2022/03/23 12:30:36;;;;;;;;;16.60;15.60;;;;;;;;4928280;28;8907;-82
2022/03/23 12:33:11;;;;;;;;;17.80;16.80;;;;;;;;4941098;28;8900;-85
2022/03/23 12:35:39;;;;;;;;;16.80;16.00;;;;;;;;4944725;28;8876;-85
2022/03/23 12:38:19;;;;;;;;;13.00;13.00;;;;;;;;4943717;28;9019;-84
2022/03/23 12:40:47;;;;;;;;;16.20;16.20;;;;;;;;4947676;28;10685;-83
2022/03/23 12:43:37;;;;;;;;;19.40;17.20;;;;;;;;4943154;28;8937;-84
2022/03/23 12:46:07;;;;;;;;;17.20;17.00;;;;;;;;4938616;28;8889;-80
2022/03/23 12:59:37;;;;;;;;;15.00;15.00;;;;;;;;4965724;28;8915;-78
2022/03/23 13:02:29;;;;;;;;;16.40;16.40;;;;;;;;4951422;28;8983;-76
2022/03/23 13:04:57;;;;;;;;;23.60;20.00;;;;;;;;4940260;28;8903;-77
2022/03/23 13:07:41;;;;;;;;;20.20;20.20;;;;;;;;4968412;28;8877;-77
2022/03/23 13:10:12;;;;;;;;;21.00;19.80;;;;;;;;4959293;28;8854;-81
2022/03/23 13:12:40;;;;;;;;;16.20;16.20;;;;;;;;4946360;28;8906;-81
2022/03/23 13:15:12;;;;;;;;;20.00;18.40;;;;;;;;4950289;28;8897;-80
2022/03/23 13:17:41;;;;;;;;;17.40;16.20;;;;;;;;4942897;28;8864;-79
2022/03/23 13:20:10;;;;;;;;;16.00;15.20;;;;;;;;4943932;28;9626;-79
2022/03/23 13:22:39;;;;;;;;;21.60;21.60;;;;;;;;4943735;28;8912;-80
2022/03/23 13:25:11;;;;;;;;;19.60;18.00;;;;;;;;4944215;28;8900;-79
2022/03/23 13:27:39;;;;;;;;;17.40;17.40;;;;;;;;4944593;28;8880;-77
2022/03/23 13:30:08;;;;;;;;;21.40;19.00;;;;;;;;4945349;28;9011;-80
2022/03/23 13:32:39;;;;;;;;;16.60;16.60;;;;;;;;4940823;28;9036;-76
2022/03/23 13:35:13;;;;;;;;;20.00;20.00;;;;;;;;4937917;28;8876;-75
2022/03/23 13:37:55;;;;;;;;;19.00;19.00;;;;;;;;4946522;28;8869;-75
2022/03/23 13:40:28;;;;;;;;;24.20;22.00;;;;;;;;4942193;28;8877;-75
2022/03/23 13:45:44;;;;;;;;;17.60;17.60;;;;;;;;4940445;28;8857;-76
2022/03/23 13:48:11;;;;;;;;;19.00;18.20;;;;;;;;4943773;28;8883;-76
2022/03/23 13:50:44;;;;;;;;;18.00;17.00;;;;;;;;4930043;28;9530;-76
2022/03/23 13:53:13;;;;;;;;;16.40;16.40;;;;;;;;4939078;28;9745;-75
2022/03/23 13:55:42;;;;;;;;;19.60;18.00;;;;;;;;4948304;28;9192;-76
2022/03/23 13:58:10;;;;;;;;;20.80;19.60;;;;;;;;4946053;28;8883;-75
2022/03/23 14:00:38;;;;;;;;;18.40;16.20;;;;;;;;4955896;28;8780;-76
2022/03/23 14:03:06;;;;;;;;;20.00;20.00;;;;;;;;4953084;28;8850;-76
2022/03/23 14:05:34;;;;;;;;;19.00;19.00;;;;;;;;4943734;28;8913;-76
2022/03/23 14:08:02;;;;;;;;;20.00;20.00;;;;;;;;4994158;28;9669;-76
2022/03/23 14:10:35;;;;;;;;;17.80;16.60;;;;;;;;4970659;28;8886;-76
2022/03/23 14:13:08;;;;;;;;;18.60;17.00;;;;;;;;4943024;28;8868;-75
2022/03/23 14:15:50;;;;;;;;;16.60;16.60;;;;;;;;4955094;28;9182;-74
2022/03/23 14:18:20;;;;;;;;;18.60;17.80;;;;;;;;4931843;28;8888;-76
2022/03/23 14:20:54;;;;;;;;;20.80;18.60;;;;;;;;4957398;28;8878;-76
2022/03/23 14:23:23;;;;;;;;;16.20;15.40;;;;;;;;4963051;28;8905;-74
2022/03/23 14:25:50;;;;;;;;;16.40;16.40;;;;;;;;4945330;28;8862;-76
2022/03/23 14:28:20;;;;;;;;;16.40;16.40;;;;;;;;4943374;28;8908;-73
2022/03/23 14:30:49;;;;;;;;;16.40;16.40;;;;;;;;4931667;28;8943;-73
2022/03/23 14:33:20;;;;;;;;;14.60;14.40;;;;;;;;4955079;28;8850;-74
2022/03/23 14:35:49;;;;;;;;;20.80;18.60;;;;;;;;4955936;28;8854;-73
2022/03/23 14:38:18;;;;;;;;;20.80;19.00;;;;;;;;4951425;28;8908;-74
2022/03/23 14:40:50;;;;;;;;;20.80;19.20;;;;;;;;4941890;28;9622;-75
2022/03/23 14:43:29;;;;;;;;;19.20;19.20;;;;;;;;4946278;28;8892;-75
2022/03/23 14:45:58;;;;;;;;;19.60;19.20;;;;;;;;4966419;28;8888;-75
2022/03/23 14:48:27;;;;;;;;;18.40;17.20;;;;;;;;4932914;28;8924;-75
2022/03/23 14:50:56;;;;;;;;;19.40;17.80;;;;;;;;4939287;28;9666;-75
2022/03/23 14:53:25;;;;;;;;;22.40;19.80;;;;;;;;4948515;28;8878;-75
2022/03/23 14:55:52;;;;;;;;;17.60;15.20;;;;;;;;4947573;28;8876;-75
2022/03/23 14:58:25;;;;;;;;;16.20;16.20;;;;;;;;4939614;28;8882;-77
2022/03/23 15:00:58;;;;;;;;;20.80;18.20;;;;;;;;4937582;28;8906;-75
2022/03/23 15:03:26;;;;;;;;;15.20;15.20;;;;;;;;4947812;28;8874;-77
2022/03/23 15:14:08;;;;;;;;;18.80;17.40;;;;;;;;4935512;28;8845;-82
2022/03/23 15:16:39;;;;;;;;;18.60;18.20;;;;;;;;4934688;28;8908;-83
2022/03/23 15:19:07;;;;;;;;;13.40;12.20;;;;;;;;4935418;28;8914;-82
2022/03/23 15:21:35;;;;;;;;;18.20;18.20;;;;;;;;4915422;28;9002;-81
2022/03/23 15:24:02;;;;;;;;;19.20;16.60;;;;;;;;4938866;28;8886;-80
2022/03/23 15:26:30;;;;;;;;;15.20;15.20;;;;;;;;4936670;28;8885;-81
2022/03/23 15:28:58;;;;;;;;;20.60;19.00;;;;;;;;4939783;28;8882;-81
2022/03/23 15:31:27;;;;;;;;;19.20;18.20;;;;;;;;4935856;28;8950;-80
2022/03/23 15:33:58;;;;;;;;;17.80;17.80;;;;;;;;4936972;28;8889;-81